createdAt,value
2018-10-16T00:00:40.750Z,70.23
2018-10-16T00:03:07.081Z,70.76
2018-10-16T00:05:33.385Z,70.82
2018-10-16T00:07:59.712Z,70.92
2018-10-16T00:10:26.080Z,70.48
2018-10-16T00:12:52.384Z,70.41
2018-10-16T00:15:18.690Z,70.29
2018-10-16T00:17:45.016Z,70.34
2018-10-16T00:20:11.364Z,70.21
2018-10-16T00:22:37.672Z,70.17
2018-10-16T00:25:03.981Z,69.93
2018-10-16T00:27:30.313Z,69.87
2018-10-16T00:29:56.614Z,70.03
2018-10-16T00:32:22.936Z,69.96
2018-10-16T00:34:49.256Z,70.05
2018-10-16T00:37:15.560Z,70.18
2018-10-16T00:39:41.882Z,70.33
2018-10-16T00:42:08.200Z,70.43
2018-10-16T00:44:34.495Z,70.50
2018-10-16T00:47:00.821Z,70.52
2018-10-16T00:49:27.183Z,70.49
2018-10-16T00:51:53.478Z,70.53
2018-10-16T00:54:19.801Z,70.69
2018-10-16T00:56:46.127Z,70.99
2018-10-16T00:59:12.536Z,71.16
2018-10-16T01:01:38.825Z,71.26
2018-10-16T01:04:05.152Z,70.56
2018-10-16T01:06:31.452Z,71.17
2018-10-16T01:08:57.774Z,71.24
2018-10-16T01:11:24.075Z,71.86
2018-10-16T01:13:50.397Z,71.86
2018-10-16T01:16:16.756Z,71.58
2018-10-16T01:18:43.062Z,71.93
2018-10-16T01:21:09.392Z,72.68
2018-10-16T01:23:35.751Z,73.01
2018-10-16T01:26:02.052Z,73.14
2018-10-16T01:28:28.374Z,73.22
2018-10-16T01:30:54.688Z,73.72
2018-10-16T01:33:21.017Z,73.32
2018-10-16T01:35:47.319Z,73.64
2018-10-16T01:38:13.611Z,74.12
2018-10-16T01:40:39.912Z,73.51
2018-10-16T01:43:06.211Z,73.50
2018-10-16T01:45:32.542Z,74.26
2018-10-16T01:47:58.839Z,74.55
2018-10-16T01:50:25.142Z,74.38
2018-10-16T01:52:51.448Z,74.59
2018-10-16T01:55:17.760Z,74.19
2018-10-16T01:57:44.093Z,74.21
2018-10-16T02:00:10.439Z,74.60
2018-10-16T02:02:36.805Z,74.20
2018-10-16T02:05:03.100Z,74.67
2018-10-16T02:07:29.434Z,74.80
2018-10-16T02:09:55.750Z,74.65
2018-10-16T02:12:22.057Z,74.59
2018-10-16T02:14:48.462Z,74.23
2018-10-16T02:17:14.756Z,74.38
2018-10-16T02:19:41.052Z,74.83
2018-10-16T02:22:07.383Z,74.65
2018-10-16T02:24:33.705Z,74.46
2018-10-16T02:27:00.290Z,74.98
2018-10-16T02:29:26.624Z,75.06
2018-10-16T02:31:52.945Z,75.60
2018-10-16T02:34:19.253Z,75.83
2018-10-16T02:36:45.585Z,75.58
2018-10-16T02:39:11.918Z,75.87
2018-10-16T02:41:38.283Z,75.65
2018-10-16T02:44:04.615Z,75.87
2018-10-16T02:46:30.932Z,76.03
2018-10-16T02:48:57.265Z,75.32
2018-10-16T02:51:23.635Z,75.28
2018-10-16T02:53:49.931Z,75.53
2018-10-16T02:56:16.240Z,76.08
2018-10-16T02:58:42.615Z,76.31
2018-10-16T03:01:08.954Z,76.73
2018-10-16T03:03:35.258Z,76.79
2018-10-16T03:06:01.621Z,76.76
2018-10-16T03:08:27.940Z,76.37
2018-10-16T03:10:54.278Z,76.41
2018-10-16T03:13:20.637Z,76.49
2018-10-16T03:15:47.007Z,76.48
2018-10-16T03:18:13.311Z,76.58
2018-10-16T03:20:39.782Z,76.37
2018-10-16T03:23:05.981Z,76.88
2018-10-16T03:25:32.310Z,76.99
2018-10-16T03:27:58.633Z,77.00
2018-10-16T03:30:24.975Z,77.16
2018-10-16T03:32:51.271Z,77.80
2018-10-16T03:35:17.615Z,78.31
2018-10-16T03:37:43.979Z,78.63
2018-10-16T03:40:10.353Z,78.74
2018-10-16T03:42:36.649Z,79.12
2018-10-16T03:45:02.971Z,79.39
2018-10-16T03:47:29.328Z,79.41
2018-10-16T03:49:55.645Z,79.02
2018-10-16T03:52:21.940Z,78.65
2018-10-16T03:54:48.242Z,78.01
2018-10-16T03:57:14.665Z,77.91
2018-10-16T03:59:40.882Z,79.00
2018-10-16T04:02:07.183Z,79.88
2018-10-16T04:04:33.536Z,80.40
2018-10-16T04:06:59.837Z,80.65
2018-10-16T04:09:26.166Z,81.07
2018-10-16T04:11:52.490Z,81.76
2018-10-16T04:14:18.816Z,81.81
2018-10-16T04:16:45.137Z,81.81
2018-10-16T04:19:11.430Z,81.56
2018-10-16T04:21:37.757Z,81.42
2018-10-16T04:24:04.057Z,81.50
2018-10-16T04:26:30.353Z,81.92
2018-10-16T04:28:56.740Z,82.16
2018-10-16T04:31:23.014Z,82.34
2018-10-16T04:33:49.333Z,82.46
2018-10-16T04:36:15.665Z,82.02
2018-10-16T04:38:41.995Z,82.22
2018-10-16T04:41:08.299Z,82.23
2018-10-16T04:43:34.956Z,81.69
2018-10-16T04:46:01.228Z,81.72
2018-10-16T04:48:27.541Z,81.76
2018-10-16T04:50:53.848Z,81.43
2018-10-16T04:53:20.177Z,80.96
2018-10-16T04:55:46.470Z,80.56
2018-10-16T04:58:12.778Z,80.60
2018-10-16T05:00:39.121Z,80.76
2018-10-16T05:03:05.418Z,80.23
2018-10-16T05:05:31.740Z,80.06
2018-10-16T05:07:58.039Z,79.93
2018-10-16T05:10:24.366Z,79.88
2018-10-16T05:12:50.672Z,79.65
2018-10-16T05:15:16.992Z,78.37
2018-10-16T05:17:43.389Z,78.16
2018-10-16T05:20:09.674Z,77.65
2018-10-16T05:22:36.020Z,77.48
2018-10-16T05:25:02.325Z,76.65
2018-10-16T05:27:28.658Z,75.94
2018-10-16T05:29:54.987Z,75.25
2018-10-16T05:32:21.286Z,74.32
2018-10-16T05:34:47.586Z,73.92
2018-10-16T05:37:13.895Z,73.15
2018-10-16T05:39:40.201Z,72.57
2018-10-16T05:42:06.691Z,71.87
2018-10-16T05:44:33.034Z,71.17
2018-10-16T05:46:59.350Z,70.20
2018-10-16T05:49:25.653Z,69.57
2018-10-16T05:51:52.018Z,68.56
2018-10-16T05:54:18.392Z,68.05
2018-10-16T05:56:44.661Z,67.47
2018-10-16T05:59:10.970Z,66.99
2018-10-16T06:01:37.281Z,66.12
2018-10-16T06:04:03.616Z,66.17
2018-10-16T06:06:29.921Z,65.20
2018-10-16T06:08:56.299Z,64.48
2018-10-16T06:11:22.600Z,63.72
2018-10-16T06:13:48.921Z,64.08
2018-10-16T06:16:15.234Z,63.86
2018-10-16T06:18:41.567Z,63.04
2018-10-16T06:21:07.870Z,62.71
2018-10-16T06:23:34.212Z,61.48
2018-10-16T06:26:00.520Z,61.67
2018-10-16T06:28:26.843Z,60.24
2018-10-16T06:30:53.211Z,60.36
2018-10-16T06:33:19.567Z,60.37
2018-10-16T06:35:45.835Z,59.28
2018-10-16T06:38:12.131Z,59.19
2018-10-16T06:40:38.573Z,59.33
2018-10-16T06:43:04.791Z,59.53
2018-10-16T06:45:31.120Z,58.34
2018-10-16T06:47:57.521Z,58.67
2018-10-16T06:50:23.753Z,59.01
2018-10-16T06:52:50.066Z,57.35
2018-10-16T06:55:16.430Z,58.50
2018-10-16T06:57:42.688Z,56.89
2018-10-16T07:00:09.026Z,55.69
2018-10-16T07:02:35.342Z,56.67
2018-10-16T07:05:01.708Z,57.28
2018-10-16T07:07:28.118Z,57.18
2018-10-16T07:09:54.348Z,55.78
2018-10-16T07:12:20.690Z,56.26
2018-10-16T07:14:47.006Z,55.75
2018-10-16T07:17:13.328Z,55.22
2018-10-16T07:19:39.694Z,54.65
2018-10-16T07:22:06.002Z,54.36
2018-10-16T07:24:32.357Z,53.30
2018-10-16T07:26:58.681Z,53.78
2018-10-16T07:29:25.027Z,53.54
2018-10-16T07:31:51.354Z,52.57
2018-10-16T07:34:17.722Z,53.08
2018-10-16T07:36:44.060Z,52.32
2018-10-16T07:39:10.448Z,51.95
2018-10-16T07:41:36.742Z,52.40
2018-10-16T07:44:03.040Z,53.02
2018-10-16T07:46:29.431Z,51.74
2018-10-16T07:48:55.753Z,52.06
2018-10-16T07:51:22.119Z,49.58
2018-10-16T07:53:48.441Z,49.48
2018-10-16T07:56:14.815Z,49.58
2018-10-16T07:58:41.143Z,49.38
2018-10-16T08:01:07.484Z,48.95
2018-10-16T08:03:33.866Z,49.48
2018-10-16T08:06:00.168Z,47.86
2018-10-16T08:08:26.493Z,48.07
2018-10-16T08:10:52.831Z,48.07
2018-10-16T08:13:19.159Z,46.63
2018-10-16T08:15:45.461Z,46.67
2018-10-16T08:18:11.788Z,47.19
2018-10-16T08:20:38.085Z,47.22
2018-10-16T08:23:04.414Z,46.97
2018-10-16T08:25:30.721Z,44.91
2018-10-16T08:27:57.051Z,44.75
2018-10-16T08:30:23.410Z,44.46
2018-10-16T08:32:49.687Z,45.20
2018-10-16T08:35:16.017Z,45.07
2018-10-16T08:37:42.316Z,44.56
2018-10-16T08:40:08.639Z,44.30
2018-10-16T08:42:34.968Z,43.37
2018-10-16T08:45:01.316Z,43.98
2018-10-16T08:47:27.639Z,43.67
2018-10-16T08:49:53.895Z,43.07
2018-10-16T08:52:20.226Z,43.76
2018-10-16T08:54:46.599Z,42.86
2018-10-16T08:57:12.880Z,41.80
2018-10-16T08:59:39.207Z,40.87
2018-10-16T09:02:05.536Z,40.27
2018-10-16T09:04:31.841Z,40.67
2018-10-16T09:06:58.193Z,40.27
2018-10-16T09:09:24.483Z,40.24
2018-10-16T09:11:50.784Z,40.24
2018-10-16T09:14:17.161Z,39.98
2018-10-16T09:16:43.395Z,39.56
2018-10-16T09:19:10.961Z,38.94
2018-10-16T09:21:37.286Z,37.94
2018-10-16T09:24:03.601Z,38.69
2018-10-16T09:26:29.929Z,38.70
2018-10-16T09:28:56.253Z,38.08
2018-10-16T09:31:22.556Z,37.84
2018-10-16T09:33:48.884Z,37.36
2018-10-16T09:36:15.211Z,36.39
2018-10-16T09:38:41.542Z,36.35
2018-10-16T09:41:07.843Z,35.56
2018-10-16T09:43:34.167Z,35.46
2018-10-16T09:46:00.494Z,35.34
2018-10-16T09:48:26.819Z,35.18
2018-10-16T09:50:53.145Z,35.69
2018-10-16T09:53:19.543Z,35.04
2018-10-16T09:55:45.839Z,35.08
2018-10-16T09:58:12.182Z,34.87
2018-10-16T10:00:38.570Z,34.11
2018-10-16T10:03:04.854Z,32.94
2018-10-16T10:05:31.182Z,32.02
2018-10-16T10:07:57.516Z,32.15
2018-10-16T10:10:23.838Z,29.09
2018-10-16T10:12:50.153Z,30.09
2018-10-16T10:15:16.452Z,30.57
2018-10-16T10:17:42.789Z,30.10
2018-10-16T10:20:09.099Z,29.83
2018-10-16T10:22:35.424Z,28.77
2018-10-16T10:25:01.852Z,28.35
2018-10-16T10:27:28.111Z,28.62
2018-10-16T10:29:54.457Z,28.18
2018-10-16T10:32:20.857Z,27.50
2018-10-16T10:34:47.192Z,28.01
2018-10-16T10:37:13.552Z,27.69
2018-10-16T10:39:39.853Z,27.63
2018-10-16T10:42:06.225Z,27.90
2018-10-16T10:44:32.507Z,26.91
2018-10-16T10:46:58.843Z,27.27
2018-10-16T10:49:25.181Z,26.73
2018-10-16T10:51:51.483Z,26.03
2018-10-16T10:54:17.809Z,25.73
2018-10-16T10:56:44.233Z,24.77
2018-10-16T10:59:10.445Z,23.66
2018-10-16T11:01:36.746Z,24.03
2018-10-16T11:04:03.053Z,24.47
2018-10-16T11:06:29.380Z,25.20
2018-10-16T11:08:55.782Z,24.31
2018-10-16T11:11:22.010Z,24.16
2018-10-16T11:13:48.433Z,24.25
2018-10-16T11:16:14.761Z,24.81
2018-10-16T11:18:43.293Z,24.87
2018-10-16T11:21:09.731Z,25.17
2018-10-16T11:23:36.015Z,24.82
2018-10-16T11:26:02.337Z,23.69
2018-10-16T11:28:28.696Z,24.13
2018-10-16T11:30:55.064Z,24.01
2018-10-16T11:33:21.401Z,24.03
2018-10-16T11:35:47.721Z,24.19
2018-10-16T11:38:14.046Z,24.28
2018-10-16T11:40:40.415Z,24.34
2018-10-16T11:43:06.752Z,23.92
2018-10-16T11:45:33.116Z,23.64
2018-10-16T11:47:59.394Z,22.30
2018-10-16T11:50:25.749Z,22.79
2018-10-16T11:52:52.085Z,22.69
2018-10-16T11:55:18.395Z,22.79
2018-10-16T11:57:44.721Z,22.67
2018-10-16T12:00:11.053Z,22.92
2018-10-16T12:02:37.432Z,23.23
2018-10-16T12:05:03.707Z,22.38
2018-10-16T12:07:30.003Z,22.14
2018-10-16T12:09:56.349Z,21.64
2018-10-16T12:12:22.673Z,21.68
2018-10-16T12:14:48.985Z,21.79
2018-10-16T12:17:15.287Z,22.24
2018-10-16T12:19:41.744Z,22.43
2018-10-16T12:22:07.972Z,21.97
2018-10-16T12:24:34.299Z,21.52
2018-10-16T12:27:00.616Z,21.73
2018-10-16T12:29:26.906Z,22.21
2018-10-16T12:31:53.253Z,22.06
2018-10-16T12:34:19.575Z,22.14
2018-10-16T12:36:45.912Z,22.34
2018-10-16T12:39:12.349Z,22.40
2018-10-16T12:41:38.544Z,21.67
2018-10-16T12:44:04.860Z,21.11
2018-10-16T12:46:31.191Z,22.03
2018-10-16T12:48:57.515Z,22.04
2018-10-16T12:51:23.824Z,22.27
2018-10-16T12:53:50.145Z,21.53
2018-10-16T12:56:16.542Z,21.70
2018-10-16T12:58:42.790Z,21.86
2018-10-16T13:01:09.164Z,21.75
2018-10-16T13:03:35.544Z,22.34
2018-10-16T13:06:01.850Z,24.12
2018-10-16T13:08:28.181Z,25.34
2018-10-16T13:10:54.566Z,26.09
2018-10-16T13:13:20.847Z,26.71
2018-10-16T13:15:47.213Z,27.70
2018-10-16T13:18:13.583Z,28.46
2018-10-16T13:20:39.949Z,29.63
2018-10-16T13:23:06.334Z,30.22
2018-10-16T13:25:32.626Z,30.64
2018-10-16T13:27:59.001Z,30.80
2018-10-16T13:30:25.268Z,30.81
2018-10-16T13:32:51.608Z,31.02
2018-10-16T13:35:17.934Z,31.11
2018-10-16T13:37:44.301Z,31.43
2018-10-16T13:40:10.697Z,31.48
2018-10-16T13:42:36.992Z,31.45
2018-10-16T13:45:03.297Z,31.33
2018-10-16T13:47:29.622Z,31.02
2018-10-16T13:49:55.973Z,31.22
2018-10-16T13:52:22.269Z,31.59
2018-10-16T13:54:48.599Z,31.84
2018-10-16T13:57:14.943Z,31.89
2018-10-16T13:59:41.276Z,32.08
2018-10-16T14:02:07.710Z,32.37
2018-10-16T14:04:34.025Z,32.12
2018-10-16T14:07:00.342Z,32.33
2018-10-16T14:09:26.656Z,32.66
2018-10-16T14:11:53.023Z,32.57
2018-10-16T14:14:19.365Z,32.82
2018-10-16T14:16:45.745Z,32.84
2018-10-16T14:19:12.010Z,32.82
2018-10-16T14:21:38.415Z,33.05
2018-10-16T14:24:04.734Z,33.41
2018-10-16T14:26:31.108Z,33.26
2018-10-16T14:28:57.439Z,33.52
2018-10-16T14:31:23.773Z,33.70
2018-10-16T14:33:50.169Z,33.50
2018-10-16T14:36:16.437Z,33.79
2018-10-16T14:38:42.766Z,33.89
2018-10-16T14:41:09.092Z,34.12
2018-10-16T14:43:35.442Z,34.24
2018-10-16T14:46:01.837Z,34.20
2018-10-16T14:48:28.100Z,34.46
2018-10-16T14:50:54.438Z,34.72
2018-10-16T14:53:20.765Z,34.79
2018-10-16T14:55:47.089Z,34.96
2018-10-16T14:58:13.450Z,35.11
2018-10-16T15:00:39.742Z,35.52
2018-10-16T15:03:06.108Z,35.74
2018-10-16T15:05:32.407Z,35.92
2018-10-16T15:07:58.782Z,36.45
2018-10-16T15:10:25.115Z,36.72
2018-10-16T15:12:51.395Z,36.94
2018-10-16T15:15:17.790Z,37.08
2018-10-16T15:17:44.117Z,37.29
2018-10-16T15:20:10.574Z,37.55
2018-10-16T15:22:36.777Z,37.64
2018-10-16T15:25:03.139Z,37.81
2018-10-16T15:27:29.461Z,38.03
2018-10-16T15:29:55.779Z,38.27
2018-10-16T15:32:22.094Z,38.62
2018-10-16T15:34:48.446Z,39.01
2018-10-16T15:37:14.778Z,39.04
2018-10-16T15:39:41.109Z,39.19
2018-10-16T15:42:07.471Z,39.40
2018-10-16T15:44:33.771Z,39.38
2018-10-16T15:47:00.099Z,39.61
2018-10-16T15:49:26.425Z,39.75
2018-10-16T15:51:52.800Z,39.92
2018-10-16T15:54:19.067Z,40.10
2018-10-16T15:56:45.394Z,40.14
2018-10-16T15:59:11.712Z,40.25
2018-10-16T16:01:38.040Z,40.46
2018-10-16T16:04:04.432Z,40.92
2018-10-16T16:06:30.689Z,40.98
2018-10-16T16:08:57.044Z,41.30
2018-10-16T16:11:23.338Z,41.34
2018-10-16T16:13:49.653Z,41.81
2018-10-16T16:16:15.965Z,41.88
2018-10-16T16:18:42.282Z,41.93
2018-10-16T16:21:08.615Z,42.22
2018-10-16T16:23:34.950Z,42.30
2018-10-16T16:26:01.402Z,42.83
2018-10-16T16:28:27.613Z,42.93
2018-10-16T16:30:53.938Z,43.18
2018-10-16T16:33:20.263Z,43.07
2018-10-16T16:35:46.578Z,43.22
2018-10-16T16:38:12.943Z,43.39
2018-10-16T16:40:39.231Z,43.69
2018-10-16T16:43:05.551Z,43.71
2018-10-16T16:45:31.869Z,44.58
2018-10-16T16:47:58.200Z,44.45
2018-10-16T16:50:24.534Z,45.94
2018-10-16T16:52:50.883Z,45.96
2018-10-16T16:55:17.175Z,45.67
2018-10-16T16:57:43.497Z,45.51
2018-10-16T17:00:09.859Z,45.31
2018-10-16T17:02:36.193Z,45.41
2018-10-16T17:05:02.512Z,46.63
2018-10-16T17:07:28.847Z,46.12
2018-10-16T17:09:55.183Z,45.47
2018-10-16T17:12:21.498Z,46.16
2018-10-16T17:14:47.826Z,46.76
2018-10-16T17:17:14.166Z,46.67
2018-10-16T17:19:40.487Z,46.61
2018-10-16T17:22:06.843Z,46.82
2018-10-16T17:24:33.134Z,47.32
2018-10-16T17:26:59.473Z,47.57
2018-10-16T17:29:25.803Z,47.21
2018-10-16T17:31:52.133Z,47.29
2018-10-16T17:34:18.476Z,47.45
2018-10-16T17:36:44.797Z,47.14
2018-10-16T17:39:11.198Z,46.79
2018-10-16T17:41:37.477Z,46.91
2018-10-16T17:44:03.838Z,46.67
2018-10-16T17:46:30.178Z,46.78
2018-10-16T17:48:56.509Z,46.68
2018-10-16T17:51:22.834Z,46.80
2018-10-16T17:53:49.163Z,47.10
2018-10-16T17:56:15.487Z,47.20
2018-10-16T17:58:41.820Z,47.60
2018-10-16T18:01:08.139Z,48.08
2018-10-16T18:03:34.468Z,48.54
2018-10-16T18:06:00.833Z,48.67
2018-10-16T18:08:27.149Z,48.85
2018-10-16T18:10:53.466Z,49.17
2018-10-16T18:13:19.784Z,49.56
2018-10-16T18:15:46.103Z,49.65
2018-10-16T18:18:12.474Z,50.19
2018-10-16T18:20:38.748Z,49.93
2018-10-16T18:23:05.070Z,50.32
2018-10-16T18:25:31.388Z,51.03
2018-10-16T18:27:57.726Z,51.15
2018-10-16T18:30:24.050Z,51.41
2018-10-16T18:32:50.421Z,52.14
2018-10-16T18:35:16.718Z,51.73
2018-10-16T18:37:43.043Z,51.96
2018-10-16T18:40:09.398Z,51.91
2018-10-16T18:42:35.681Z,52.16
2018-10-16T18:45:02.034Z,51.95
2018-10-16T18:47:28.322Z,52.12
2018-10-16T18:49:54.653Z,52.19
2018-10-16T18:52:21.079Z,52.70
2018-10-16T18:54:47.312Z,53.20
2018-10-16T18:57:13.739Z,53.48
2018-10-16T18:59:39.982Z,53.80
2018-10-16T19:02:06.408Z,53.10
2018-10-16T19:04:32.692Z,53.50
2018-10-16T19:07:01.617Z,53.14
2018-10-16T19:09:25.368Z,54.35
2018-10-16T19:11:51.713Z,53.80
2018-10-16T19:14:18.031Z,53.73
2018-10-16T19:16:44.359Z,54.09
2018-10-16T19:19:10.688Z,54.21
2018-10-16T19:21:37.020Z,54.26
2018-10-16T19:24:03.334Z,54.97
2018-10-16T19:26:29.641Z,55.15
2018-10-16T19:28:59.202Z,55.17
2018-10-16T19:31:25.545Z,55.55
2018-10-16T19:33:51.875Z,55.38
2018-10-16T19:36:18.357Z,55.74
2018-10-16T19:38:44.585Z,55.74
2018-10-16T19:41:10.922Z,55.85
2018-10-16T19:43:37.257Z,56.28
2018-10-16T19:46:03.583Z,56.55
2018-10-16T19:48:29.908Z,56.87
2018-10-16T19:50:56.294Z,56.49
2018-10-16T19:53:22.587Z,56.54
2018-10-16T19:55:49.999Z,56.88
2018-10-16T19:58:16.311Z,56.44
2018-10-16T20:00:42.626Z,56.70
2018-10-16T20:03:09.022Z,57.06
2018-10-16T20:05:35.298Z,57.15
2018-10-16T20:08:01.729Z,57.47
2018-10-16T20:10:28.055Z,57.69
2018-10-16T20:12:54.373Z,57.77
2018-10-16T20:15:20.704Z,58.33
2018-10-16T20:17:47.066Z,58.94
2018-10-16T20:20:13.345Z,59.19
2018-10-16T20:22:39.682Z,59.84
2018-10-16T20:25:06.002Z,59.81
2018-10-16T20:27:32.338Z,59.97
2018-10-16T20:29:58.666Z,60.30
2018-10-16T20:32:24.986Z,61.12
2018-10-16T20:34:51.314Z,62.53
2018-10-16T20:37:17.656Z,62.19
2018-10-16T20:39:44.010Z,62.19
2018-10-16T20:42:10.577Z,61.32
2018-10-16T20:44:36.807Z,61.15
2018-10-16T20:47:03.131Z,60.69
2018-10-16T20:49:29.462Z,61.07
2018-10-16T20:51:55.779Z,61.11
2018-10-16T20:54:22.103Z,61.33
2018-10-16T20:56:48.422Z,61.30
2018-10-16T20:59:14.729Z,61.22
2018-10-16T21:01:41.075Z,61.42
2018-10-16T21:04:07.444Z,61.64
2018-10-16T21:06:33.864Z,62.21
2018-10-16T21:09:00.053Z,62.70
2018-10-16T21:11:26.358Z,63.15
2018-10-16T21:13:52.688Z,63.18
2018-10-16T21:16:19.019Z,63.97
2018-10-16T21:18:45.338Z,64.10
2018-10-16T21:21:11.671Z,64.10
2018-10-16T21:23:37.990Z,64.16
2018-10-16T21:26:04.324Z,64.31
2018-10-16T21:28:30.661Z,64.01
2018-10-16T21:30:56.993Z,64.39
2018-10-16T21:33:23.320Z,64.61
2018-10-16T21:35:49.658Z,65.00
2018-10-16T21:38:15.977Z,65.36
2018-10-16T21:40:42.321Z,65.53
2018-10-16T21:43:08.679Z,65.05
2018-10-16T21:45:35.036Z,65.16
2018-10-16T21:48:01.328Z,64.97
2018-10-16T21:50:27.665Z,65.12
2018-10-16T21:52:53.992Z,64.91
2018-10-16T21:55:20.323Z,65.59
2018-10-16T21:57:46.723Z,65.80
2018-10-16T22:00:13.023Z,65.32
2018-10-16T22:02:39.353Z,65.68
2018-10-16T22:05:05.706Z,66.10
2018-10-16T22:07:32.055Z,66.77
2018-10-16T22:09:58.372Z,66.10
2018-10-16T22:12:24.698Z,66.79
2018-10-16T22:14:51.024Z,66.12
2018-10-16T22:17:17.325Z,66.62
2018-10-16T22:19:43.647Z,66.79
2018-10-16T22:22:10.011Z,66.50
2018-10-16T22:24:36.372Z,67.30
2018-10-16T22:27:02.689Z,67.25
2018-10-16T22:29:29.112Z,67.72
2018-10-16T22:31:55.363Z,68.57
2018-10-16T22:34:21.704Z,68.11
2018-10-16T22:36:48.039Z,68.57
2018-10-16T22:39:14.303Z,68.37
2018-10-16T22:41:40.608Z,68.53
2018-10-16T22:44:06.900Z,69.10
2018-10-16T22:46:33.203Z,68.67
2018-10-16T22:48:59.538Z,68.58
2018-10-16T22:51:25.805Z,68.76
2018-10-16T22:53:52.106Z,68.73
2018-10-16T22:56:18.409Z,69.12
2018-10-16T22:58:44.754Z,69.18
2018-10-16T23:01:11.209Z,69.42
2018-10-16T23:03:37.401Z,69.50
2018-10-16T23:06:03.717Z,69.94
2018-10-16T23:08:30.031Z,69.70
2018-10-16T23:10:56.399Z,69.27
2018-10-16T23:13:22.640Z,69.45
2018-10-16T23:15:48.945Z,70.09
2018-10-16T23:18:15.243Z,69.53
2018-10-16T23:20:41.614Z,69.09
2018-10-16T23:23:07.884Z,69.29
2018-10-16T23:25:34.164Z,69.36
2018-10-16T23:28:00.459Z,69.38
2018-10-16T23:30:26.783Z,69.91
2018-10-16T23:32:53.082Z,68.97
2018-10-16T23:35:19.409Z,69.47
2018-10-16T23:37:45.708Z,69.31
2018-10-16T23:40:12.038Z,69.80
2018-10-16T23:42:38.330Z,69.75
2018-10-16T23:45:04.632Z,70.04
2018-10-16T23:47:30.960Z,70.35
2018-10-16T23:49:57.294Z,69.90
2018-10-16T23:52:23.601Z,70.79
2018-10-16T23:54:59.216Z,69.96
2018-10-16T23:57:25.490Z,70.58
2018-10-16T23:59:51.841Z,70.54
